sensor_id;sensor_type;location;lat;lon;timestamp;temperature;humidity
48752;DHT22;34544;48.836;9.174;2023-02-01T00:00:45;5.00;99.90
48752;DHT22;34544;48.836;9.174;2023-02-01T00:03:10;5.00;99.90
48752;DHT22;34544;48.836;9.174;2023-02-01T00:05:38;5.00;99.90
48752;DHT22;34544;48.836;9.174;2023-02-01T00:08:04;5.00;99.90
48752;DHT22;34544;48.836;9.174;2023-02-01T00:10:30;5.00;99.90
48752;DHT22;34544;48.836;9.174;2023-02-01T00:12:55;4.90;99.90
48752;DHT22;34544;48.836;9.174;2023-02-01T00:15:21;5.00;99.90
48752;DHT22;34544;48.836;9.174;2023-02-01T00:17:52;5.00;99.90
48752;DHT22;34544;48.836;9.174;2023-02-01T00:20:18;5.00;99.90
48752;DHT22;34544;48.836;9.174;2023-02-01T00:22:44;5.00;99.90
48752;DHT22;34544;48.836;9.174;2023-02-01T00:25:09;5.00;99.90
48752;DHT22;34544;48.836;9.174;2023-02-01T00:27:35;5.00;99.90
48752;DHT22;34544;48.836;9.174;2023-02-01T00:30:00;5.00;99.90
48752;DHT22;34544;48.836;9.174;2023-02-01T00:32:26;5.00;99.90
48752;DHT22;34544;48.836;9.174;2023-02-01T00:34:52;5.00;99.90
48752;DHT22;34544;48.836;9.174;2023-02-01T00:37:18;5.00;99.90
48752;DHT22;34544;48.836;9.174;2023-02-01T00:39:43;5.00;99.90
48752;DHT22;34544;48.836;9.174;2023-02-01T00:42:09;5.00;99.90
48752;DHT22;34544;48.836;9.174;2023-02-01T00:44:35;5.00;99.90
48752;DHT22;34544;48.836;9.174;2023-02-01T00:47:01;5.10;99.90
48752;DHT22;34544;48.836;9.174;2023-02-01T00:49:27;5.10;99.90
48752;DHT22;34544;48.836;9.174;2023-02-01T00:51:53;5.10;99.90
48752;DHT22;34544;48.836;9.174;2023-02-01T00:54:19;5.10;99.90
48752;DHT22;34544;48.836;9.174;2023-02-01T00:56:44;5.10;99.90
48752;DHT22;34544;48.836;9.174;2023-02-01T00:59:13;5.10;99.90
48752;DHT22;34544;48.836;9.174;2023-02-01T01:01:39;5.10;99.90
48752;DHT22;34544;48.836;9.174;2023-02-01T01:04:05;5.10;99.90
48752;DHT22;34544;48.836;9.174;2023-02-01T01:06:33;5.10;99.90
48752;DHT22;34544;48.836;9.174;2023-02-01T01:09:00;5.10;99.90
48752;DHT22;34544;48.836;9.174;2023-02-01T01:11:29;5.10;99.90
48752;DHT22;34544;48.836;9.174;2023-02-01T01:13:57;5.00;99.90
48752;DHT22;34544;48.836;9.174;2023-02-01T01:16:24;5.00;99.90
48752;DHT22;34544;48.836;9.174;2023-02-01T01:18:50;5.10;99.90
48752;DHT22;34544;48.836;9.174;2023-02-01T01:21:16;5.00;99.90
48752;DHT22;34544;48.836;9.174;2023-02-01T01:23:43;5.00;99.90
48752;DHT22;34544;48.836;9.174;2023-02-01T01:26:12;5.00;99.90
48752;DHT22;34544;48.836;9.174;2023-02-01T01:28:38;4.90;99.90
48752;DHT22;34544;48.836;9.174;2023-02-01T01:31:08;5.00;99.90
48752;DHT22;34544;48.836;9.174;2023-02-01T01:33:34;5.00;99.90
48752;DHT22;34544;48.836;9.174;2023-02-01T01:35:59;5.00;99.90
48752;DHT22;34544;48.836;9.174;2023-02-01T01:38:25;5.00;99.90
48752;DHT22;34544;48.836;9.174;2023-02-01T01:40:51;5.00;99.90
48752;DHT22;34544;48.836;9.174;2023-02-01T01:43:18;5.10;99.90
48752;DHT22;34544;48.836;9.174;2023-02-01T01:45:46;5.10;99.90
48752;DHT22;34544;48.836;9.174;2023-02-01T01:48:18;5.10;99.90
48752;DHT22;34544;48.836;9.174;2023-02-01T01:50:51;5.10;99.90
48752;DHT22;34544;48.836;9.174;2023-02-01T01:53:24;5.10;99.90
48752;DHT22;34544;48.836;9.174;2023-02-01T01:55:52;5.10;99.90
48752;DHT22;34544;48.836;9.174;2023-02-01T01:58:22;5.10;99.90
48752;DHT22;34544;48.836;9.174;2023-02-01T02:00:49;5.10;99.90
48752;DHT22;34544;48.836;9.174;2023-02-01T02:03:16;5.10;99.90
48752;DHT22;34544;48.836;9.174;2023-02-01T02:05:43;5.10;99.90
48752;DHT22;34544;48.836;9.174;2023-02-01T02:08:10;5.20;99.90
48752;DHT22;34544;48.836;9.174;2023-02-01T02:10:37;5.20;99.90
48752;DHT22;34544;48.836;9.174;2023-02-01T02:13:22;5.20;99.90
48752;DHT22;34544;48.836;9.174;2023-02-01T02:16:25;5.20;99.90
48752;DHT22;34544;48.836;9.174;2023-02-01T02:24:10;5.20;99.90
48752;DHT22;34544;48.836;9.174;2023-02-01T02:26:55;5.20;99.90
48752;DHT22;34544;48.836;9.174;2023-02-01T02:35:16;5.20;99.90
48752;DHT22;34544;48.836;9.174;2023-02-01T02:40:57;5.20;99.90
48752;DHT22;34544;48.836;9.174;2023-02-01T02:43:42;5.20;99.90
48752;DHT22;34544;48.836;9.174;2023-02-01T02:46:38;5.20;99.90
48752;DHT22;34544;48.836;9.174;2023-02-01T02:49:52;5.20;99.90
48752;DHT22;34544;48.836;9.174;2023-02-01T02:52:43;5.20;99.90
48752;DHT22;34544;48.836;9.174;2023-02-01T02:55:28;5.20;99.90
48752;DHT22;34544;48.836;9.174;2023-02-01T02:57:56;5.20;99.90
48752;DHT22;34544;48.836;9.174;2023-02-01T03:00:42;5.20;99.90
48752;DHT22;34544;48.836;9.174;2023-02-01T03:03:28;5.30;99.90
48752;DHT22;34544;48.836;9.174;2023-02-01T03:06:16;5.20;99.90
48752;DHT22;34544;48.836;9.174;2023-02-01T03:08:44;5.20;99.90
48752;DHT22;34544;48.836;9.174;2023-02-01T03:11:13;5.20;99.90
48752;DHT22;34544;48.836;9.174;2023-02-01T03:13:47;5.20;99.90
48752;DHT22;34544;48.836;9.174;2023-02-01T03:16:24;5.20;99.90
48752;DHT22;34544;48.836;9.174;2023-02-01T03:18:57;5.20;99.90
48752;DHT22;34544;48.836;9.174;2023-02-01T03:24:02;5.20;99.90
48752;DHT22;34544;48.836;9.174;2023-02-01T03:26:31;5.20;99.90
48752;DHT22;34544;48.836;9.174;2023-02-01T03:29:05;5.10;99.90
48752;DHT22;34544;48.836;9.174;2023-02-01T03:31:34;5.10;99.90
48752;DHT22;34544;48.836;9.174;2023-02-01T03:34:00;5.10;99.90
48752;DHT22;34544;48.836;9.174;2023-02-01T03:36:30;5.10;99.90
48752;DHT22;34544;48.836;9.174;2023-02-01T03:40:05;5.10;99.90
48752;DHT22;34544;48.836;9.174;2023-02-01T03:42:31;5.10;99.90
48752;DHT22;34544;48.836;9.174;2023-02-01T03:45:08;5.00;99.90
48752;DHT22;34544;48.836;9.174;2023-02-01T03:47:38;5.00;99.90
48752;DHT22;34544;48.836;9.174;2023-02-01T03:50:12;5.00;99.90
48752;DHT22;34544;48.836;9.174;2023-02-01T03:52:51;5.00;99.90
48752;DHT22;34544;48.836;9.174;2023-02-01T03:55:19;5.00;99.90
48752;DHT22;34544;48.836;9.174;2023-02-01T03:57:52;5.00;99.90
48752;DHT22;34544;48.836;9.174;2023-02-01T04:00:25;5.00;99.90
48752;DHT22;34544;48.836;9.174;2023-02-01T04:02:52;5.00;99.90
48752;DHT22;34544;48.836;9.174;2023-02-01T04:05:18;5.10;99.90
48752;DHT22;34544;48.836;9.174;2023-02-01T04:07:52;5.10;99.90
48752;DHT22;34544;48.836;9.174;2023-02-01T04:10:17;5.10;99.90
48752;DHT22;34544;48.836;9.174;2023-02-01T04:12:43;5.10;99.90
48752;DHT22;34544;48.836;9.174;2023-02-01T04:15:09;5.20;99.90
48752;DHT22;34544;48.836;9.174;2023-02-01T04:17:35;5.20;99.90
48752;DHT22;34544;48.836;9.174;2023-02-01T04:20:00;5.20;99.90
48752;DHT22;34544;48.836;9.174;2023-02-01T04:22:27;5.30;99.90
48752;DHT22;34544;48.836;9.174;2023-02-01T04:24:54;5.30;99.90
48752;DHT22;34544;48.836;9.174;2023-02-01T04:27:19;5.40;99.90
48752;DHT22;34544;48.836;9.174;2023-02-01T04:29:45;5.40;99.90
48752;DHT22;34544;48.836;9.174;2023-02-01T04:32:11;5.40;99.90
48752;DHT22;34544;48.836;9.174;2023-02-01T04:34:36;5.40;99.90
48752;DHT22;34544;48.836;9.174;2023-02-01T04:37:02;5.40;99.90
48752;DHT22;34544;48.836;9.174;2023-02-01T04:39:28;5.30;99.90
48752;DHT22;34544;48.836;9.174;2023-02-01T04:41:54;5.30;99.90
48752;DHT22;34544;48.836;9.174;2023-02-01T04:44:20;5.30;99.90
48752;DHT22;34544;48.836;9.174;2023-02-01T04:46:46;5.30;99.90
48752;DHT22;34544;48.836;9.174;2023-02-01T04:49:13;5.30;99.90
48752;DHT22;34544;48.836;9.174;2023-02-01T04:51:39;5.40;99.90
48752;DHT22;34544;48.836;9.174;2023-02-01T04:54:05;5.40;99.90
48752;DHT22;34544;48.836;9.174;2023-02-01T04:56:31;5.40;99.90
48752;DHT22;34544;48.836;9.174;2023-02-01T04:58:57;5.40;99.90
48752;DHT22;34544;48.836;9.174;2023-02-01T05:01:23;5.50;99.90
48752;DHT22;34544;48.836;9.174;2023-02-01T05:03:50;5.50;99.90
48752;DHT22;34544;48.836;9.174;2023-02-01T05:06:15;5.50;99.90
48752;DHT22;34544;48.836;9.174;2023-02-01T05:08:41;5.40;99.90
48752;DHT22;34544;48.836;9.174;2023-02-01T05:11:07;5.40;99.90
48752;DHT22;34544;48.836;9.174;2023-02-01T05:13:52;5.40;99.90
48752;DHT22;34544;48.836;9.174;2023-02-01T05:16:18;5.40;99.90
48752;DHT22;34544;48.836;9.174;2023-02-01T05:18:44;5.40;99.90
48752;DHT22;34544;48.836;9.174;2023-02-01T05:21:10;5.50;99.90
48752;DHT22;34544;48.836;9.174;2023-02-01T05:23:35;5.60;99.90
48752;DHT22;34544;48.836;9.174;2023-02-01T05:26:21;5.60;99.90
48752;DHT22;34544;48.836;9.174;2023-02-01T05:28:47;5.60;99.90
48752;DHT22;34544;48.836;9.174;2023-02-01T05:31:12;5.60;99.90
48752;DHT22;34544;48.836;9.174;2023-02-01T05:33:38;5.70;99.90
48752;DHT22;34544;48.836;9.174;2023-02-01T05:36:04;5.60;99.90
48752;DHT22;34544;48.836;9.174;2023-02-01T05:38:29;5.70;99.90
48752;DHT22;34544;48.836;9.174;2023-02-01T05:40:56;5.70;99.90
48752;DHT22;34544;48.836;9.174;2023-02-01T05:43:22;5.70;99.90
48752;DHT22;34544;48.836;9.174;2023-02-01T05:45:47;5.70;99.90
48752;DHT22;34544;48.836;9.174;2023-02-01T05:48:13;5.70;99.90
48752;DHT22;34544;48.836;9.174;2023-02-01T05:50:39;5.70;99.90
48752;DHT22;34544;48.836;9.174;2023-02-01T05:53:08;5.70;99.90
48752;DHT22;34544;48.836;9.174;2023-02-01T05:55:33;5.60;99.90
48752;DHT22;34544;48.836;9.174;2023-02-01T05:57:59;5.70;99.90
48752;DHT22;34544;48.836;9.174;2023-02-01T06:00:25;5.70;99.90
48752;DHT22;34544;48.836;9.174;2023-02-01T06:02:50;5.70;99.90
48752;DHT22;34544;48.836;9.174;2023-02-01T06:05:16;5.70;99.90
48752;DHT22;34544;48.836;9.174;2023-02-01T06:07:42;5.70;99.90
48752;DHT22;34544;48.836;9.174;2023-02-01T06:10:08;5.60;99.90
48752;DHT22;34544;48.836;9.174;2023-02-01T06:12:34;5.60;99.90
48752;DHT22;34544;48.836;9.174;2023-02-01T06:15:00;5.70;99.90
48752;DHT22;34544;48.836;9.174;2023-02-01T06:17:26;5.60;99.90
48752;DHT22;34544;48.836;9.174;2023-02-01T06:19:51;5.60;99.90
48752;DHT22;34544;48.836;9.174;2023-02-01T06:22:17;5.70;99.90
48752;DHT22;34544;48.836;9.174;2023-02-01T06:24:43;5.70;99.90
48752;DHT22;34544;48.836;9.174;2023-02-01T06:27:09;5.70;99.90
48752;DHT22;34544;48.836;9.174;2023-02-01T06:29:35;5.80;99.90
48752;DHT22;34544;48.836;9.174;2023-02-01T06:32:01;5.80;99.90
48752;DHT22;34544;48.836;9.174;2023-02-01T06:34:27;5.80;99.90
48752;DHT22;34544;48.836;9.174;2023-02-01T06:36:52;5.80;99.90
48752;DHT22;34544;48.836;9.174;2023-02-01T06:39:20;5.90;99.90
48752;DHT22;34544;48.836;9.174;2023-02-01T06:41:47;5.90;99.90
48752;DHT22;34544;48.836;9.174;2023-02-01T06:44:13;5.90;99.90
48752;DHT22;34544;48.836;9.174;2023-02-01T06:46:39;5.90;99.90
48752;DHT22;34544;48.836;9.174;2023-02-01T06:49:05;6.00;99.90
48752;DHT22;34544;48.836;9.174;2023-02-01T06:51:30;6.00;99.90
48752;DHT22;34544;48.836;9.174;2023-02-01T06:53:56;6.00;99.90
48752;DHT22;34544;48.836;9.174;2023-02-01T06:56:22;6.00;99.90
48752;DHT22;34544;48.836;9.174;2023-02-01T06:58:48;6.10;99.90
48752;DHT22;34544;48.836;9.174;2023-02-01T07:01:14;6.10;99.90
48752;DHT22;34544;48.836;9.174;2023-02-01T07:03:40;6.20;99.90
48752;DHT22;34544;48.836;9.174;2023-02-01T07:06:07;6.20;99.90
48752;DHT22;34544;48.836;9.174;2023-02-01T07:08:35;6.30;99.90
48752;DHT22;34544;48.836;9.174;2023-02-01T07:11:06;6.30;99.90
48752;DHT22;34544;48.836;9.174;2023-02-01T07:13:32;6.30;99.90
48752;DHT22;34544;48.836;9.174;2023-02-01T07:16:02;6.30;99.90
48752;DHT22;34544;48.836;9.174;2023-02-01T07:18:29;6.40;99.90
48752;DHT22;34544;48.836;9.174;2023-02-01T07:20:55;6.40;99.90
48752;DHT22;34544;48.836;9.174;2023-02-01T07:23:21;6.40;99.90
48752;DHT22;34544;48.836;9.174;2023-02-01T07:25:47;6.40;99.90
48752;DHT22;34544;48.836;9.174;2023-02-01T07:28:13;6.40;99.90
48752;DHT22;34544;48.836;9.174;2023-02-01T07:30:38;6.40;99.90
48752;DHT22;34544;48.836;9.174;2023-02-01T07:33:04;6.40;99.90
48752;DHT22;34544;48.836;9.174;2023-02-01T07:35:30;6.50;99.90
48752;DHT22;34544;48.836;9.174;2023-02-01T07:37:57;6.50;99.90
48752;DHT22;34544;48.836;9.174;2023-02-01T07:40:23;6.50;99.90
48752;DHT22;34544;48.836;9.174;2023-02-01T07:42:54;6.50;99.90
48752;DHT22;34544;48.836;9.174;2023-02-01T07:45:21;6.50;99.90
48752;DHT22;34544;48.836;9.174;2023-02-01T07:47:47;6.50;99.90
48752;DHT22;34544;48.836;9.174;2023-02-01T07:50:13;6.60;99.90
48752;DHT22;34544;48.836;9.174;2023-02-01T07:52:39;6.60;99.90
48752;DHT22;34544;48.836;9.174;2023-02-01T07:55:06;6.60;99.90
48752;DHT22;34544;48.836;9.174;2023-02-01T07:57:32;6.60;99.90
48752;DHT22;34544;48.836;9.174;2023-02-01T07:59:58;6.60;99.90
48752;DHT22;34544;48.836;9.174;2023-02-01T08:02:42;6.60;99.90
48752;DHT22;34544;48.836;9.174;2023-02-01T08:05:08;6.70;99.90
48752;DHT22;34544;48.836;9.174;2023-02-01T08:07:34;6.70;99.90
48752;DHT22;34544;48.836;9.174;2023-02-01T08:10:00;6.70;99.90
48752;DHT22;34544;48.836;9.174;2023-02-01T08:12:26;6.70;99.90
48752;DHT22;34544;48.836;9.174;2023-02-01T08:14:53;6.70;99.90
48752;DHT22;34544;48.836;9.174;2023-02-01T08:17:19;6.70;99.90
48752;DHT22;34544;48.836;9.174;2023-02-01T08:19:45;6.70;99.90
48752;DHT22;34544;48.836;9.174;2023-02-01T08:22:11;6.80;99.90
48752;DHT22;34544;48.836;9.174;2023-02-01T08:24:37;6.80;99.90
48752;DHT22;34544;48.836;9.174;2023-02-01T08:27:06;6.80;99.90
48752;DHT22;34544;48.836;9.174;2023-02-01T08:29:31;6.80;99.90
48752;DHT22;34544;48.836;9.174;2023-02-01T08:31:58;6.90;99.90
48752;DHT22;34544;48.836;9.174;2023-02-01T08:34:23;6.90;99.90
48752;DHT22;34544;48.836;9.174;2023-02-01T08:36:49;6.90;99.90
48752;DHT22;34544;48.836;9.174;2023-02-01T08:39:17;7.00;99.90
48752;DHT22;34544;48.836;9.174;2023-02-01T08:41:42;7.10;99.90
48752;DHT22;34544;48.836;9.174;2023-02-01T08:44:28;7.10;99.90
48752;DHT22;34544;48.836;9.174;2023-02-01T08:46:54;7.20;99.90
48752;DHT22;34544;48.836;9.174;2023-02-01T08:49:19;7.30;99.90
48752;DHT22;34544;48.836;9.174;2023-02-01T08:51:45;7.30;99.90
48752;DHT22;34544;48.836;9.174;2023-02-01T08:54:10;7.40;99.90
48752;DHT22;34544;48.836;9.174;2023-02-01T08:56:36;7.40;99.90
48752;DHT22;34544;48.836;9.174;2023-02-01T08:59:02;7.40;99.90
48752;DHT22;34544;48.836;9.174;2023-02-01T09:01:27;7.40;99.90
48752;DHT22;34544;48.836;9.174;2023-02-01T09:03:53;7.30;99.90
48752;DHT22;34544;48.836;9.174;2023-02-01T09:06:18;7.30;99.90
48752;DHT22;34544;48.836;9.174;2023-02-01T09:08:44;7.20;99.90
48752;DHT22;34544;48.836;9.174;2023-02-01T09:11:15;7.20;99.90
48752;DHT22;34544;48.836;9.174;2023-02-01T09:13:41;7.20;99.90
48752;DHT22;34544;48.836;9.174;2023-02-01T09:16:08;7.10;99.90
48752;DHT22;34544;48.836;9.174;2023-02-01T09:18:34;7.10;99.90
48752;DHT22;34544;48.836;9.174;2023-02-01T09:21:04;7.10;99.90
48752;DHT22;34544;48.836;9.174;2023-02-01T09:23:29;7.00;99.90
48752;DHT22;34544;48.836;9.174;2023-02-01T09:25:59;7.00;99.90
48752;DHT22;34544;48.836;9.174;2023-02-01T09:28:25;7.00;99.90
48752;DHT22;34544;48.836;9.174;2023-02-01T09:30:58;7.00;99.90
48752;DHT22;34544;48.836;9.174;2023-02-01T09:33:24;7.10;99.90
48752;DHT22;34544;48.836;9.174;2023-02-01T09:35:56;7.20;99.90
48752;DHT22;34544;48.836;9.174;2023-02-01T09:38:21;7.20;99.90
48752;DHT22;34544;48.836;9.174;2023-02-01T09:40:47;7.20;99.90
48752;DHT22;34544;48.836;9.174;2023-02-01T09:48:58;7.20;99.90
48752;DHT22;34544;48.836;9.174;2023-02-01T09:51:31;7.20;99.90
48752;DHT22;34544;48.836;9.174;2023-02-01T09:54:04;7.30;99.90
48752;DHT22;34544;48.836;9.174;2023-02-01T09:56:36;7.30;99.90
48752;DHT22;34544;48.836;9.174;2023-02-01T09:59:33;7.30;99.90
48752;DHT22;34544;48.836;9.174;2023-02-01T10:01:56;7.40;99.90
48752;DHT22;34544;48.836;9.174;2023-02-01T10:04:25;7.50;99.90
48752;DHT22;34544;48.836;9.174;2023-02-01T10:06:57;7.50;99.90
48752;DHT22;34544;48.836;9.174;2023-02-01T10:09:52;7.60;99.90
48752;DHT22;34544;48.836;9.174;2023-02-01T10:26:18;7.70;99.90
48752;DHT22;34544;48.836;9.174;2023-02-01T10:28:48;8.20;99.90
48752;DHT22;34544;48.836;9.174;2023-02-01T10:31:15;8.60;99.90
48752;DHT22;34544;48.836;9.174;2023-02-01T10:33:49;8.80;99.90
48752;DHT22;34544;48.836;9.174;2023-02-01T10:36:23;8.80;99.90
48752;DHT22;34544;48.836;9.174;2023-02-01T10:38:51;8.60;99.90
48752;DHT22;34544;48.836;9.174;2023-02-01T10:41:20;8.50;99.90
48752;DHT22;34544;48.836;9.174;2023-02-01T10:43:50;8.30;99.90
48752;DHT22;34544;48.836;9.174;2023-02-01T10:46:18;8.20;99.90
48752;DHT22;34544;48.836;9.174;2023-02-01T10:48:44;8.10;99.90
48752;DHT22;34544;48.836;9.174;2023-02-01T10:51:22;8.00;99.90
48752;DHT22;34544;48.836;9.174;2023-02-01T10:56:23;8.00;99.90
48752;DHT22;34544;48.836;9.174;2023-02-01T10:58:49;8.00;99.90
48752;DHT22;34544;48.836;9.174;2023-02-01T11:01:26;8.00;99.90
48752;DHT22;34544;48.836;9.174;2023-02-01T11:03:57;7.90;99.90
48752;DHT22;34544;48.836;9.174;2023-02-01T11:08:51;7.90;99.90
48752;DHT22;34544;48.836;9.174;2023-02-01T11:11:17;7.90;99.90
48752;DHT22;34544;48.836;9.174;2023-02-01T11:13:43;7.80;99.90
48752;DHT22;34544;48.836;9.174;2023-02-01T11:16:13;7.80;99.90
48752;DHT22;34544;48.836;9.174;2023-02-01T11:18:39;7.80;99.90
48752;DHT22;34544;48.836;9.174;2023-02-01T11:21:06;7.70;99.90
48752;DHT22;34544;48.836;9.174;2023-02-01T11:23:33;7.70;99.90
48752;DHT22;34544;48.836;9.174;2023-02-01T11:26:28;7.70;99.90
48752;DHT22;34544;48.836;9.174;2023-02-01T11:28:58;7.60;99.90
48752;DHT22;34544;48.836;9.174;2023-02-01T11:31:27;7.70;99.90
48752;DHT22;34544;48.836;9.174;2023-02-01T11:33:59;7.60;99.90
48752;DHT22;34544;48.836;9.174;2023-02-01T11:36:32;7.70;99.90
48752;DHT22;34544;48.836;9.174;2023-02-01T11:39:18;7.60;99.90
48752;DHT22;34544;48.836;9.174;2023-02-01T11:44:34;7.60;99.90
48752;DHT22;34544;48.836;9.174;2023-02-01T11:49:45;7.60;99.90
48752;DHT22;34544;48.836;9.174;2023-02-01T11:55:01;7.70;99.90
48752;DHT22;34544;48.836;9.174;2023-02-01T12:03:17;7.70;99.90
48752;DHT22;34544;48.836;9.174;2023-02-01T12:06:05;7.80;99.90
48752;DHT22;34544;48.836;9.174;2023-02-01T12:14:32;7.70;99.90
48752;DHT22;34544;48.836;9.174;2023-02-01T12:20:40;7.50;99.90
48752;DHT22;34544;48.836;9.174;2023-02-01T12:26:07;7.50;99.90
48752;DHT22;34544;48.836;9.174;2023-02-01T12:31:14;7.60;99.90
48752;DHT22;34544;48.836;9.174;2023-02-01T12:37:04;7.60;99.90
48752;DHT22;34544;48.836;9.174;2023-02-01T12:39:40;7.60;99.90
48752;DHT22;34544;48.836;9.174;2023-02-01T12:42:29;7.60;99.90
48752;DHT22;34544;48.836;9.174;2023-02-01T12:47:34;7.40;99.90
48752;DHT22;34544;48.836;9.174;2023-02-01T12:50:22;7.40;99.90
48752;DHT22;34544;48.836;9.174;2023-02-01T12:52:52;7.30;99.90
48752;DHT22;34544;48.836;9.174;2023-02-01T12:55:41;7.40;99.90
48752;DHT22;34544;48.836;9.174;2023-02-01T12:58:21;7.30;99.90
48752;DHT22;34544;48.836;9.174;2023-02-01T13:01:11;7.40;99.90
48752;DHT22;34544;48.836;9.174;2023-02-01T13:06:44;7.30;99.90
48752;DHT22;34544;48.836;9.174;2023-02-01T13:09:19;7.20;99.90
48752;DHT22;34544;48.836;9.174;2023-02-01T13:11:48;7.30;99.90
48752;DHT22;34544;48.836;9.174;2023-02-01T13:14:36;7.20;99.90
48752;DHT22;34544;48.836;9.174;2023-02-01T13:17:15;7.20;99.90
48752;DHT22;34544;48.836;9.174;2023-02-01T13:19:52;7.20;99.90
48752;DHT22;34544;48.836;9.174;2023-02-01T13:25:11;7.20;99.90
48752;DHT22;34544;48.836;9.174;2023-02-01T13:27:38;7.30;99.90
48752;DHT22;34544;48.836;9.174;2023-02-01T13:30:24;7.20;99.90
48752;DHT22;34544;48.836;9.174;2023-02-01T13:33:14;7.20;99.90
48752;DHT22;34544;48.836;9.174;2023-02-01T13:38:49;7.30;99.90
48752;DHT22;34544;48.836;9.174;2023-02-01T13:41:24;7.30;99.90
48752;DHT22;34544;48.836;9.174;2023-02-01T13:43:59;7.30;99.90
48752;DHT22;34544;48.836;9.174;2023-02-01T13:46:26;7.30;99.90
48752;DHT22;34544;48.836;9.174;2023-02-01T13:48:58;7.30;99.90
48752;DHT22;34544;48.836;9.174;2023-02-01T13:54:00;7.20;99.90
48752;DHT22;34544;48.836;9.174;2023-02-01T13:56:26;7.20;99.90
48752;DHT22;34544;48.836;9.174;2023-02-01T13:58:52;7.30;99.90
48752;DHT22;34544;48.836;9.174;2023-02-01T14:03:54;7.20;99.90
48752;DHT22;34544;48.836;9.174;2023-02-01T14:19:29;7.20;99.90
48752;DHT22;34544;48.836;9.174;2023-02-01T14:22:00;7.20;99.90
48752;DHT22;34544;48.836;9.174;2023-02-01T14:24:33;7.20;99.90
48752;DHT22;34544;48.836;9.174;2023-02-01T14:27:17;7.20;99.90
48752;DHT22;34544;48.836;9.174;2023-02-01T14:29:50;7.20;99.90
48752;DHT22;34544;48.836;9.174;2023-02-01T14:32:26;7.20;99.90
48752;DHT22;34544;48.836;9.174;2023-02-01T14:34:59;7.20;99.90
48752;DHT22;34544;48.836;9.174;2023-02-01T14:37:31;7.20;99.90
48752;DHT22;34544;48.836;9.174;2023-02-01T14:39:59;7.20;99.90
48752;DHT22;34544;48.836;9.174;2023-02-01T15:01:23;7.20;99.90
48752;DHT22;34544;48.836;9.174;2023-02-01T15:04:05;7.10;99.90
48752;DHT22;34544;48.836;9.174;2023-02-01T15:06:33;7.10;99.90
48752;DHT22;34544;48.836;9.174;2023-02-01T15:09:09;7.10;99.90
48752;DHT22;34544;48.836;9.174;2023-02-01T15:14:27;7.10;99.90
48752;DHT22;34544;48.836;9.174;2023-02-01T15:16:53;7.10;99.90
48752;DHT22;34544;48.836;9.174;2023-02-01T15:19:21;7.10;99.90
48752;DHT22;34544;48.836;9.174;2023-02-01T15:21:50;7.10;99.90
48752;DHT22;34544;48.836;9.174;2023-02-01T15:24:28;7.10;99.90
48752;DHT22;34544;48.836;9.174;2023-02-01T15:26:55;7.10;99.90
48752;DHT22;34544;48.836;9.174;2023-02-01T15:29:23;7.10;99.90
48752;DHT22;34544;48.836;9.174;2023-02-01T15:31:53;7.00;99.90
48752;DHT22;34544;48.836;9.174;2023-02-01T15:34:20;7.10;99.90
48752;DHT22;34544;48.836;9.174;2023-02-01T15:36:46;7.10;99.90
48752;DHT22;34544;48.836;9.174;2023-02-01T15:41:50;7.00;99.90
48752;DHT22;34544;48.836;9.174;2023-02-01T15:44:20;7.00;99.90
48752;DHT22;34544;48.836;9.174;2023-02-01T15:46:49;7.00;99.90
48752;DHT22;34544;48.836;9.174;2023-02-01T15:51:50;7.00;99.90
48752;DHT22;34544;48.836;9.174;2023-02-01T15:54:52;7.00;99.90
48752;DHT22;34544;48.836;9.174;2023-02-01T15:57:10;7.00;99.90
48752;DHT22;34544;48.836;9.174;2023-02-01T15:59:41;7.00;99.90
48752;DHT22;34544;48.836;9.174;2023-02-01T16:02:38;7.00;99.90
48752;DHT22;34544;48.836;9.174;2023-02-01T16:05:44;7.00;99.90
48752;DHT22;34544;48.836;9.174;2023-02-01T16:08:15;7.00;99.90
48752;DHT22;34544;48.836;9.174;2023-02-01T16:10:46;7.00;99.90
48752;DHT22;34544;48.836;9.174;2023-02-01T16:13:13;7.00;99.90
48752;DHT22;34544;48.836;9.174;2023-02-01T16:15:39;7.00;99.90
48752;DHT22;34544;48.836;9.174;2023-02-01T16:18:06;7.00;99.90
48752;DHT22;34544;48.836;9.174;2023-02-01T16:20:39;7.00;99.90
48752;DHT22;34544;48.836;9.174;2023-02-01T16:23:06;7.00;99.90
48752;DHT22;34544;48.836;9.174;2023-02-01T16:25:34;7.10;99.90
48752;DHT22;34544;48.836;9.174;2023-02-01T16:28:00;7.10;99.90
48752;DHT22;34544;48.836;9.174;2023-02-01T16:30:26;7.00;99.90
48752;DHT22;34544;48.836;9.174;2023-02-01T16:32:56;7.00;99.90
48752;DHT22;34544;48.836;9.174;2023-02-01T16:35:26;7.00;99.90
48752;DHT22;34544;48.836;9.174;2023-02-01T16:37:53;7.00;99.90
48752;DHT22;34544;48.836;9.174;2023-02-01T16:40:19;7.00;99.90
48752;DHT22;34544;48.836;9.174;2023-02-01T16:42:49;7.00;99.90
48752;DHT22;34544;48.836;9.174;2023-02-01T16:45:16;7.00;99.90
48752;DHT22;34544;48.836;9.174;2023-02-01T16:47:49;7.00;99.90
48752;DHT22;34544;48.836;9.174;2023-02-01T16:50:20;7.00;99.90
48752;DHT22;34544;48.836;9.174;2023-02-01T16:52:46;7.00;99.90
48752;DHT22;34544;48.836;9.174;2023-02-01T16:55:16;7.00;99.90
48752;DHT22;34544;48.836;9.174;2023-02-01T16:57:43;6.90;99.90
48752;DHT22;34544;48.836;9.174;2023-02-01T17:00:10;6.90;99.90
48752;DHT22;34544;48.836;9.174;2023-02-01T17:02:37;6.90;99.90
48752;DHT22;34544;48.836;9.174;2023-02-01T17:05:04;6.90;99.90
48752;DHT22;34544;48.836;9.174;2023-02-01T17:07:30;6.90;99.90
48752;DHT22;34544;48.836;9.174;2023-02-01T17:09:56;6.90;99.90
48752;DHT22;34544;48.836;9.174;2023-02-01T17:12:27;6.90;99.90
48752;DHT22;34544;48.836;9.174;2023-02-01T17:14:53;6.90;99.90
48752;DHT22;34544;48.836;9.174;2023-02-01T17:17:20;6.90;99.90
48752;DHT22;34544;48.836;9.174;2023-02-01T17:19:48;6.90;99.90
48752;DHT22;34544;48.836;9.174;2023-02-01T17:22:17;6.90;99.90
48752;DHT22;34544;48.836;9.174;2023-02-01T17:24:43;6.90;99.90
48752;DHT22;34544;48.836;9.174;2023-02-01T17:27:09;6.90;99.90
48752;DHT22;34544;48.836;9.174;2023-02-01T17:29:35;6.90;99.90
48752;DHT22;34544;48.836;9.174;2023-02-01T17:32:02;6.90;99.90
48752;DHT22;34544;48.836;9.174;2023-02-01T17:34:27;6.90;99.90
48752;DHT22;34544;48.836;9.174;2023-02-01T17:36:53;6.90;99.90
48752;DHT22;34544;48.836;9.174;2023-02-01T17:39:19;6.90;99.90
48752;DHT22;34544;48.836;9.174;2023-02-01T17:42:04;6.90;99.90
48752;DHT22;34544;48.836;9.174;2023-02-01T17:44:31;6.90;99.90
48752;DHT22;34544;48.836;9.174;2023-02-01T17:46:57;6.90;99.90
48752;DHT22;34544;48.836;9.174;2023-02-01T17:49:24;6.90;99.90
48752;DHT22;34544;48.836;9.174;2023-02-01T17:51:50;7.00;99.90
48752;DHT22;34544;48.836;9.174;2023-02-01T17:54:16;6.90;99.90
48752;DHT22;34544;48.836;9.174;2023-02-01T17:56:44;6.90;99.90
48752;DHT22;34544;48.836;9.174;2023-02-01T17:59:11;6.90;99.90
48752;DHT22;34544;48.836;9.174;2023-02-01T18:01:36;7.00;99.90
48752;DHT22;34544;48.836;9.174;2023-02-01T18:04:02;6.90;99.90
48752;DHT22;34544;48.836;9.174;2023-02-01T18:06:33;6.90;99.90
48752;DHT22;34544;48.836;9.174;2023-02-01T18:08:59;6.90;99.90
48752;DHT22;34544;48.836;9.174;2023-02-01T18:11:25;6.90;99.90